sensor_id;sensor_type;location;lat;lon;timestamp;P1;durP1;ratioP1;P2;durP2;ratioP2
40649;SDS011;26342;42.826;23.992;2022-12-10T00:00:17;0.63;;;0.45;;
40649;SDS011;26342;42.826;23.992;2022-12-10T00:02:43;0.98;;;0.30;;
40649;SDS011;26342;42.826;23.992;2022-12-10T00:05:08;25.02;;;0.52;;
40649;SDS011;26342;42.826;23.992;2022-12-10T00:07:33;0.13;;;0.10;;
40649;SDS011;26342;42.826;23.992;2022-12-10T00:09:59;0.70;;;0.70;;
40649;SDS011;26342;42.826;23.992;2022-12-10T00:12:24;0.57;;;0.38;;
40649;SDS011;26342;42.826;23.992;2022-12-10T00:14:50;0.40;;;0.30;;
40649;SDS011;26342;42.826;23.992;2022-12-10T00:17:15;0.38;;;0.25;;
40649;SDS011;26342;42.826;23.992;2022-12-10T00:19:40;2.40;;;0.60;;
40649;SDS011;26342;42.826;23.992;2022-12-10T00:22:06;0.10;;;0.10;;
40649;SDS011;26342;42.826;23.992;2022-12-10T00:24:31;1.65;;;0.65;;
40649;SDS011;26342;42.826;23.992;2022-12-10T00:26:57;0.30;;;0.20;;
40649;SDS011;26342;42.826;23.992;2022-12-10T00:29:22;0.35;;;0.35;;
40649;SDS011;26342;42.826;23.992;2022-12-10T00:31:47;0.22;;;0.22;;
40649;SDS011;26342;42.826;23.992;2022-12-10T00:34:13;0.40;;;0.40;;
40649;SDS011;26342;42.826;23.992;2022-12-10T00:36:42;0.22;;;0.20;;
40649;SDS011;26342;42.826;23.992;2022-12-10T00:39:10;0.00;;;0.00;;
40649;SDS011;26342;42.826;23.992;2022-12-10T00:41:37;0.25;;;0.25;;
40649;SDS011;26342;42.826;23.992;2022-12-10T00:44:03;3.03;;;0.75;;
40649;SDS011;26342;42.826;23.992;2022-12-10T00:46:28;0.43;;;0.43;;
40649;SDS011;26342;42.826;23.992;2022-12-10T00:48:54;1.23;;;0.47;;
40649;SDS011;26342;42.826;23.992;2022-12-10T00:51:21;0.65;;;0.55;;
40649;SDS011;26342;42.826;23.992;2022-12-10T00:53:49;0.28;;;0.22;;
40649;SDS011;26342;42.826;23.992;2022-12-10T00:56:16;0.10;;;0.10;;
40649;SDS011;26342;42.826;23.992;2022-12-10T00:58:43;1.00;;;0.55;;
40649;SDS011;26342;42.826;23.992;2022-12-10T01:01:10;0.00;;;0.00;;
40649;SDS011;26342;42.826;23.992;2022-12-10T01:03:35;0.30;;;0.30;;
40649;SDS011;26342;42.826;23.992;2022-12-10T01:06:08;0.10;;;0.10;;
40649;SDS011;26342;42.826;23.992;2022-12-10T01:08:34;0.40;;;0.13;;
40649;SDS011;26342;42.826;23.992;2022-12-10T01:10:59;9.50;;;0.40;;
40649;SDS011;26342;42.826;23.992;2022-12-10T01:13:25;0.75;;;0.65;;
40649;SDS011;26342;42.826;23.992;2022-12-10T01:15:50;0.28;;;0.28;;
40649;SDS011;26342;42.826;23.992;2022-12-10T01:18:16;0.52;;;0.30;;
40649;SDS011;26342;42.826;23.992;2022-12-10T01:20:41;0.05;;;0.05;;
40649;SDS011;26342;42.826;23.992;2022-12-10T01:23:06;2.20;;;0.77;;
40649;SDS011;26342;42.826;23.992;2022-12-10T01:25:32;0.20;;;0.05;;
40649;SDS011;26342;42.826;23.992;2022-12-10T01:27:57;0.57;;;0.40;;
40649;SDS011;26342;42.826;23.992;2022-12-10T01:30:22;0.00;;;0.00;;
40649;SDS011;26342;42.826;23.992;2022-12-10T01:32:48;0.47;;;0.28;;
40649;SDS011;26342;42.826;23.992;2022-12-10T01:35:13;0.52;;;0.45;;
40649;SDS011;26342;42.826;23.992;2022-12-10T01:37:39;2.85;;;1.02;;
40649;SDS011;26342;42.826;23.992;2022-12-10T01:40:04;1.40;;;0.88;;
40649;SDS011;26342;42.826;23.992;2022-12-10T01:42:30;0.43;;;0.38;;
40649;SDS011;26342;42.826;23.992;2022-12-10T01:44:57;1.05;;;0.98;;
40649;SDS011;26342;42.826;23.992;2022-12-10T01:47:25;0.70;;;0.70;;
40649;SDS011;26342;42.826;23.992;2022-12-10T01:49:51;1.55;;;0.50;;
40649;SDS011;26342;42.826;23.992;2022-12-10T01:52:16;1.05;;;0.80;;
40649;SDS011;26342;42.826;23.992;2022-12-10T01:54:44;5.55;;;1.02;;
40649;SDS011;26342;42.826;23.992;2022-12-10T01:57:15;1.45;;;0.75;;
40649;SDS011;26342;42.826;23.992;2022-12-10T01:59:43;0.47;;;0.47;;
40649;SDS011;26342;42.826;23.992;2022-12-10T02:08:30;0.30;;;0.30;;
40649;SDS011;26342;42.826;23.992;2022-12-10T02:16:56;0.55;;;0.52;;
40649;SDS011;26342;42.826;23.992;2022-12-10T02:22:14;0.10;;;0.10;;
40649;SDS011;26342;42.826;23.992;2022-12-10T02:24:44;0.30;;;0.30;;
40649;SDS011;26342;42.826;23.992;2022-12-10T02:27:23;1.30;;;0.55;;
40649;SDS011;26342;42.826;23.992;2022-12-10T02:29:57;0.70;;;0.40;;
40649;SDS011;26342;42.826;23.992;2022-12-10T02:32:26;1.98;;;0.65;;
40649;SDS011;26342;42.826;23.992;2022-12-10T02:37:36;0.15;;;0.15;;
40649;SDS011;26342;42.826;23.992;2022-12-10T02:40:09;1.10;;;0.73;;
40649;SDS011;26342;42.826;23.992;2022-12-10T02:42:40;7.43;;;0.32;;
40649;SDS011;26342;42.826;23.992;2022-12-10T02:45:09;0.50;;;0.50;;
40649;SDS011;26342;42.826;23.992;2022-12-10T02:47:35;0.40;;;0.40;;
40649;SDS011;26342;42.826;23.992;2022-12-10T02:50:03;0.70;;;0.70;;
40649;SDS011;26342;42.826;23.992;2022-12-10T02:52:31;0.15;;;0.15;;
40649;SDS011;26342;42.826;23.992;2022-12-10T02:54:56;5.82;;;1.17;;
40649;SDS011;26342;42.826;23.992;2022-12-10T03:00:07;1.40;;;0.80;;
40649;SDS011;26342;42.826;23.992;2022-12-10T03:08:18;1.50;;;0.40;;
40649;SDS011;26342;42.826;23.992;2022-12-10T03:13:32;0.10;;;0.10;;
40649;SDS011;26342;42.826;23.992;2022-12-10T03:16:03;0.10;;;0.10;;
40649;SDS011;26342;42.826;23.992;2022-12-10T03:18:30;1.45;;;0.30;;
40649;SDS011;26342;42.826;23.992;2022-12-10T03:20:58;1.17;;;0.90;;
40649;SDS011;26342;42.826;23.992;2022-12-10T03:23:27;0.38;;;0.28;;
40649;SDS011;26342;42.826;23.992;2022-12-10T03:25:54;0.20;;;0.20;;
40649;SDS011;26342;42.826;23.992;2022-12-10T03:28:20;4.53;;;1.95;;
40649;SDS011;26342;42.826;23.992;2022-12-10T03:30:47;0.30;;;0.20;;
40649;SDS011;26342;42.826;23.992;2022-12-10T03:33:15;0.10;;;0.10;;
40649;SDS011;26342;42.826;23.992;2022-12-10T03:35:41;0.08;;;0.08;;
40649;SDS011;26342;42.826;23.992;2022-12-10T03:38:06;5.70;;;1.17;;
40649;SDS011;26342;42.826;23.992;2022-12-10T03:40:33;0.30;;;0.30;;
40649;SDS011;26342;42.826;23.992;2022-12-10T03:42:58;5.00;;;1.02;;
40649;SDS011;26342;42.826;23.992;2022-12-10T03:45:24;0.20;;;0.20;;
40649;SDS011;26342;42.826;23.992;2022-12-10T03:47:49;0.45;;;0.30;;
40649;SDS011;26342;42.826;23.992;2022-12-10T03:50:14;0.10;;;0.10;;
40649;SDS011;26342;42.826;23.992;2022-12-10T03:52:40;0.20;;;0.20;;
40649;SDS011;26342;42.826;23.992;2022-12-10T03:55:06;0.52;;;0.45;;
40649;SDS011;26342;42.826;23.992;2022-12-10T03:57:32;2.60;;;0.47;;
40649;SDS011;26342;42.826;23.992;2022-12-10T03:59:57;0.00;;;0.00;;
40649;SDS011;26342;42.826;23.992;2022-12-10T04:02:23;1.02;;;0.90;;
40649;SDS011;26342;42.826;23.992;2022-12-10T04:04:48;0.32;;;0.17;;
40649;SDS011;26342;42.826;23.992;2022-12-10T04:07:14;0.20;;;0.20;;
40649;SDS011;26342;42.826;23.992;2022-12-10T04:09:39;0.85;;;0.57;;
40649;SDS011;26342;42.826;23.992;2022-12-10T04:12:05;0.73;;;0.52;;
40649;SDS011;26342;42.826;23.992;2022-12-10T04:14:30;0.43;;;0.43;;
40649;SDS011;26342;42.826;23.992;2022-12-10T04:17:14;0.77;;;0.60;;
40649;SDS011;26342;42.826;23.992;2022-12-10T04:19:40;0.30;;;0.30;;
40649;SDS011;26342;42.826;23.992;2022-12-10T04:22:07;0.08;;;0.08;;
40649;SDS011;26342;42.826;23.992;2022-12-10T04:24:52;0.43;;;0.43;;
40649;SDS011;26342;42.826;23.992;2022-12-10T04:27:36;0.32;;;0.32;;
40649;SDS011;26342;42.826;23.992;2022-12-10T04:30:03;0.25;;;0.17;;
40649;SDS011;26342;42.826;23.992;2022-12-10T04:32:32;0.45;;;0.40;;
40649;SDS011;26342;42.826;23.992;2022-12-10T04:34:57;0.35;;;0.25;;
40649;SDS011;26342;42.826;23.992;2022-12-10T04:37:23;0.15;;;0.15;;
40649;SDS011;26342;42.826;23.992;2022-12-10T04:39:50;0.28;;;0.28;;
40649;SDS011;26342;42.826;23.992;2022-12-10T04:42:16;1.45;;;0.77;;
40649;SDS011;26342;42.826;23.992;2022-12-10T04:44:41;0.30;;;0.20;;
40649;SDS011;26342;42.826;23.992;2022-12-10T04:47:08;2.03;;;0.75;;
40649;SDS011;26342;42.826;23.992;2022-12-10T04:49:34;1.08;;;0.52;;
40649;SDS011;26342;42.826;23.992;2022-12-10T04:52:01;0.13;;;0.13;;
40649;SDS011;26342;42.826;23.992;2022-12-10T04:54:26;0.25;;;0.25;;
40649;SDS011;26342;42.826;23.992;2022-12-10T04:56:52;1.00;;;0.30;;
40649;SDS011;26342;42.826;23.992;2022-12-10T04:59:18;1.20;;;0.30;;
40649;SDS011;26342;42.826;23.992;2022-12-10T05:01:43;0.30;;;0.30;;
40649;SDS011;26342;42.826;23.992;2022-12-10T05:04:10;0.38;;;0.38;;
40649;SDS011;26342;42.826;23.992;2022-12-10T05:06:37;0.47;;;0.30;;
40649;SDS011;26342;42.826;23.992;2022-12-10T05:09:03;0.75;;;0.30;;
40649;SDS011;26342;42.826;23.992;2022-12-10T05:11:30;0.35;;;0.32;;
40649;SDS011;26342;42.826;23.992;2022-12-10T05:13:57;3.60;;;2.30;;
40649;SDS011;26342;42.826;23.992;2022-12-10T05:16:24;1.35;;;0.68;;
40649;SDS011;26342;42.826;23.992;2022-12-10T05:18:52;0.90;;;0.80;;
40649;SDS011;26342;42.826;23.992;2022-12-10T05:21:19;1.70;;;0.70;;
40649;SDS011;26342;42.826;23.992;2022-12-10T05:23:47;1.70;;;1.25;;
40649;SDS011;26342;42.826;23.992;2022-12-10T05:26:21;1.30;;;0.90;;
40649;SDS011;26342;42.826;23.992;2022-12-10T05:28:49;1.80;;;1.70;;
40649;SDS011;26342;42.826;23.992;2022-12-10T05:31:18;0.40;;;0.40;;
40649;SDS011;26342;42.826;23.992;2022-12-10T05:33:45;0.20;;;0.20;;
40649;SDS011;26342;42.826;23.992;2022-12-10T05:36:13;0.17;;;0.15;;
40649;SDS011;26342;42.826;23.992;2022-12-10T05:38:40;2.30;;;1.17;;
40649;SDS011;26342;42.826;23.992;2022-12-10T05:41:08;0.52;;;0.35;;
40649;SDS011;26342;42.826;23.992;2022-12-10T05:43:35;0.75;;;0.50;;
40649;SDS011;26342;42.826;23.992;2022-12-10T05:46:02;0.88;;;0.50;;
40649;SDS011;26342;42.826;23.992;2022-12-10T05:48:30;1.20;;;1.10;;
40649;SDS011;26342;42.826;23.992;2022-12-10T05:50:56;1.60;;;0.90;;
40649;SDS011;26342;42.826;23.992;2022-12-10T05:53:22;2.05;;;1.52;;
40649;SDS011;26342;42.826;23.992;2022-12-10T05:55:47;1.85;;;0.63;;
40649;SDS011;26342;42.826;23.992;2022-12-10T05:58:13;0.70;;;0.70;;
40649;SDS011;26342;42.826;23.992;2022-12-10T06:00:39;1.42;;;0.77;;
40649;SDS011;26342;42.826;23.992;2022-12-10T06:03:05;1.00;;;0.88;;
40649;SDS011;26342;42.826;23.992;2022-12-10T06:05:40;28.02;;;3.08;;
40649;SDS011;26342;42.826;23.992;2022-12-10T06:08:06;4.57;;;1.63;;
40649;SDS011;26342;42.826;23.992;2022-12-10T06:10:35;2.75;;;2.25;;
40649;SDS011;26342;42.826;23.992;2022-12-10T06:13:01;2.40;;;1.50;;
40649;SDS011;26342;42.826;23.992;2022-12-10T06:15:27;2.50;;;1.48;;
40649;SDS011;26342;42.826;23.992;2022-12-10T06:17:53;2.70;;;1.58;;
40649;SDS011;26342;42.826;23.992;2022-12-10T06:20:19;2.20;;;0.80;;
40649;SDS011;26342;42.826;23.992;2022-12-10T06:22:45;0.82;;;0.68;;
40649;SDS011;26342;42.826;23.992;2022-12-10T06:25:10;0.65;;;0.47;;
40649;SDS011;26342;42.826;23.992;2022-12-10T06:27:36;1.23;;;1.02;;
40649;SDS011;26342;42.826;23.992;2022-12-10T06:30:02;3.63;;;2.40;;
40649;SDS011;26342;42.826;23.992;2022-12-10T06:32:27;4.05;;;3.05;;
40649;SDS011;26342;42.826;23.992;2022-12-10T06:34:53;6.38;;;3.25;;
40649;SDS011;26342;42.826;23.992;2022-12-10T06:37:18;3.55;;;2.70;;
40649;SDS011;26342;42.826;23.992;2022-12-10T06:39:44;5.07;;;2.20;;
40649;SDS011;26342;42.826;23.992;2022-12-10T06:42:09;4.68;;;3.53;;
40649;SDS011;26342;42.826;23.992;2022-12-10T06:44:35;4.38;;;2.75;;
40649;SDS011;26342;42.826;23.992;2022-12-10T06:47:00;5.15;;;4.13;;
40649;SDS011;26342;42.826;23.992;2022-12-10T06:49:25;5.50;;;3.85;;
40649;SDS011;26342;42.826;23.992;2022-12-10T06:51:51;8.95;;;4.90;;
40649;SDS011;26342;42.826;23.992;2022-12-10T06:54:16;11.77;;;8.13;;
40649;SDS011;26342;42.826;23.992;2022-12-10T06:56:42;6.13;;;4.30;;
40649;SDS011;26342;42.826;23.992;2022-12-10T06:59:07;9.98;;;5.18;;
40649;SDS011;26342;42.826;23.992;2022-12-10T07:01:32;6.18;;;3.35;;
40649;SDS011;26342;42.826;23.992;2022-12-10T07:03:58;14.10;;;5.45;;
40649;SDS011;26342;42.826;23.992;2022-12-10T07:06:24;5.60;;;4.50;;
40649;SDS011;26342;42.826;23.992;2022-12-10T07:08:51;8.00;;;4.57;;
40649;SDS011;26342;42.826;23.992;2022-12-10T07:11:18;11.60;;;7.43;;
40649;SDS011;26342;42.826;23.992;2022-12-10T07:13:46;11.85;;;3.33;;
40649;SDS011;26342;42.826;23.992;2022-12-10T07:16:12;13.00;;;6.70;;
40649;SDS011;26342;42.826;23.992;2022-12-10T07:18:39;5.18;;;2.65;;
40649;SDS011;26342;42.826;23.992;2022-12-10T07:23:51;3.08;;;2.22;;
40649;SDS011;26342;42.826;23.992;2022-12-10T07:26:18;4.82;;;2.13;;
40649;SDS011;26342;42.826;23.992;2022-12-10T07:28:44;2.20;;;1.75;;
40649;SDS011;26342;42.826;23.992;2022-12-10T07:31:10;13.98;;;5.95;;
40649;SDS011;26342;42.826;23.992;2022-12-10T07:33:36;16.45;;;3.40;;
40649;SDS011;26342;42.826;23.992;2022-12-10T07:36:08;10.88;;;5.45;;
40649;SDS011;26342;42.826;23.992;2022-12-10T07:38:36;12.63;;;4.97;;
40649;SDS011;26342;42.826;23.992;2022-12-10T07:41:06;9.10;;;4.90;;
40649;SDS011;26342;42.826;23.992;2022-12-10T07:43:37;5.50;;;4.15;;
40649;SDS011;26342;42.826;23.992;2022-12-10T07:46:05;6.00;;;3.97;;
40649;SDS011;26342;42.826;23.992;2022-12-10T07:48:33;7.38;;;5.03;;
40649;SDS011;26342;42.826;23.992;2022-12-10T07:50:59;7.25;;;4.38;;
40649;SDS011;26342;42.826;23.992;2022-12-10T07:53:24;5.80;;;4.13;;
40649;SDS011;26342;42.826;23.992;2022-12-10T07:55:50;2.85;;;1.27;;
40649;SDS011;26342;42.826;23.992;2022-12-10T07:58:15;2.05;;;1.20;;
40649;SDS011;26342;42.826;23.992;2022-12-10T08:00:41;2.20;;;1.10;;
40649;SDS011;26342;42.826;23.992;2022-12-10T08:03:06;0.10;;;0.10;;
40649;SDS011;26342;42.826;23.992;2022-12-10T08:05:32;0.77;;;0.77;;
40649;SDS011;26342;42.826;23.992;2022-12-10T08:07:57;0.70;;;0.63;;
40649;SDS011;26342;42.826;23.992;2022-12-10T08:10:22;0.30;;;0.30;;
40649;SDS011;26342;42.826;23.992;2022-12-10T08:12:48;3.78;;;0.63;;
40649;SDS011;26342;42.826;23.992;2022-12-10T08:15:13;18.70;;;10.55;;
40649;SDS011;26342;42.826;23.992;2022-12-10T08:17:38;8.35;;;5.20;;
40649;SDS011;26342;42.826;23.992;2022-12-10T08:20:04;12.27;;;7.60;;
40649;SDS011;26342;42.826;23.992;2022-12-10T08:22:30;4.78;;;2.92;;
40649;SDS011;26342;42.826;23.992;2022-12-10T08:24:55;3.28;;;2.88;;
40649;SDS011;26342;42.826;23.992;2022-12-10T08:27:20;2.53;;;1.80;;
40649;SDS011;26342;42.826;23.992;2022-12-10T08:29:46;0.73;;;0.73;;
40649;SDS011;26342;42.826;23.992;2022-12-10T08:32:11;6.18;;;1.73;;
40649;SDS011;26342;42.826;23.992;2022-12-10T08:34:37;0.63;;;0.63;;
40649;SDS011;26342;42.826;23.992;2022-12-10T08:37:02;2.97;;;1.63;;
40649;SDS011;26342;42.826;23.992;2022-12-10T08:39:28;1.85;;;1.65;;
40649;SDS011;26342;42.826;23.992;2022-12-10T08:41:54;0.65;;;0.60;;
40649;SDS011;26342;42.826;23.992;2022-12-10T08:44:19;1.85;;;0.52;;
40649;SDS011;26342;42.826;23.992;2022-12-10T08:46:45;1.42;;;1.33;;
40649;SDS011;26342;42.826;23.992;2022-12-10T08:49:10;0.77;;;0.55;;
40649;SDS011;26342;42.826;23.992;2022-12-10T08:51:36;3.53;;;1.50;;
40649;SDS011;26342;42.826;23.992;2022-12-10T08:54:01;2.15;;;1.55;;
40649;SDS011;26342;42.826;23.992;2022-12-10T08:56:27;1.38;;;1.27;;
40649;SDS011;26342;42.826;23.992;2022-12-10T08:58:53;0.60;;;0.60;;
40649;SDS011;26342;42.826;23.992;2022-12-10T09:01:18;1.58;;;1.13;;
40649;SDS011;26342;42.826;23.992;2022-12-10T09:03:44;0.63;;;0.63;;
40649;SDS011;26342;42.826;23.992;2022-12-10T09:06:14;1.23;;;0.95;;
40649;SDS011;26342;42.826;23.992;2022-12-10T09:08:40;0.60;;;0.52;;
40649;SDS011;26342;42.826;23.992;2022-12-10T09:11:11;0.10;;;0.10;;
40649;SDS011;26342;42.826;23.992;2022-12-10T09:13:38;2.10;;;1.50;;
40649;SDS011;26342;42.826;23.992;2022-12-10T09:16:04;1.52;;;0.65;;
40649;SDS011;26342;42.826;23.992;2022-12-10T09:18:29;0.52;;;0.52;;
40649;SDS011;26342;42.826;23.992;2022-12-10T09:20:55;1.17;;;0.75;;
40649;SDS011;26342;42.826;23.992;2022-12-10T09:23:20;0.10;;;0.10;;
40649;SDS011;26342;42.826;23.992;2022-12-10T09:25:46;1.50;;;0.77;;
40649;SDS011;26342;42.826;23.992;2022-12-10T09:28:11;0.10;;;0.10;;
40649;SDS011;26342;42.826;23.992;2022-12-10T09:30:37;0.68;;;0.28;;
40649;SDS011;26342;42.826;23.992;2022-12-10T09:33:02;0.68;;;0.68;;
40649;SDS011;26342;42.826;23.992;2022-12-10T09:35:28;1.23;;;0.52;;
40649;SDS011;26342;42.826;23.992;2022-12-10T09:37:53;0.43;;;0.38;;
40649;SDS011;26342;42.826;23.992;2022-12-10T09:40:22;1.05;;;0.95;;
40649;SDS011;26342;42.826;23.992;2022-12-10T09:43:43;1.63;;;0.63;;
40649;SDS011;26342;42.826;23.992;2022-12-10T09:51:39;0.30;;;0.15;;
40649;SDS011;26342;42.826;23.992;2022-12-10T09:54:15;0.20;;;0.20;;
40649;SDS011;26342;42.826;23.992;2022-12-10T09:56:47;0.52;;;0.38;;
40649;SDS011;26342;42.826;23.992;2022-12-10T09:59:19;0.45;;;0.30;;
40649;SDS011;26342;42.826;23.992;2022-12-10T10:01:50;0.22;;;0.22;;
40649;SDS011;26342;42.826;23.992;2022-12-10T10:04:26;0.57;;;0.35;;
40649;SDS011;26342;42.826;23.992;2022-12-10T10:06:53;0.40;;;0.38;;
40649;SDS011;26342;42.826;23.992;2022-12-10T10:09:19;0.45;;;0.30;;
40649;SDS011;26342;42.826;23.992;2022-12-10T10:11:46;0.65;;;0.60;;
40649;SDS011;26342;42.826;23.992;2022-12-10T10:14:13;0.20;;;0.20;;
40649;SDS011;26342;42.826;23.992;2022-12-10T10:16:47;0.20;;;0.20;;
40649;SDS011;26342;42.826;23.992;2022-12-10T10:19:18;0.30;;;0.30;;
40649;SDS011;26342;42.826;23.992;2022-12-10T10:21:48;0.65;;;0.45;;
40649;SDS011;26342;42.826;23.992;2022-12-10T10:24:16;1.33;;;0.40;;
40649;SDS011;26342;42.826;23.992;2022-12-10T10:26:44;0.73;;;0.45;;
40649;SDS011;26342;42.826;23.992;2022-12-10T10:29:12;0.30;;;0.30;;
40649;SDS011;26342;42.826;23.992;2022-12-10T10:31:42;0.85;;;0.32;;
40649;SDS011;26342;42.826;23.992;2022-12-10T10:34:26;0.32;;;0.30;;
40649;SDS011;26342;42.826;23.992;2022-12-10T10:36:58;0.38;;;0.38;;
40649;SDS011;26342;42.826;23.992;2022-12-10T10:39:29;0.75;;;0.73;;
40649;SDS011;26342;42.826;23.992;2022-12-10T10:41:56;0.13;;;0.13;;
40649;SDS011;26342;42.826;23.992;2022-12-10T10:44:28;0.60;;;0.47;;
40649;SDS011;26342;42.826;23.992;2022-12-10T10:47:00;1.50;;;0.68;;
40649;SDS011;26342;42.826;23.992;2022-12-10T10:51:51;1.50;;;0.75;;
40649;SDS011;26342;42.826;23.992;2022-12-10T10:57:08;0.00;;;0.00;;
40649;SDS011;26342;42.826;23.992;2022-12-10T10:59:37;8.98;;;0.50;;
40649;SDS011;26342;42.826;23.992;2022-12-10T11:02:17;1.58;;;1.10;;
40649;SDS011;26342;42.826;23.992;2022-12-10T11:04:47;1.85;;;0.75;;
40649;SDS011;26342;42.826;23.992;2022-12-10T11:07:22;0.10;;;0.10;;
40649;SDS011;26342;42.826;23.992;2022-12-10T11:09:52;0.40;;;0.40;;
40649;SDS011;26342;42.826;23.992;2022-12-10T11:12:21;0.22;;;0.22;;
40649;SDS011;26342;42.826;23.992;2022-12-10T11:14:53;0.30;;;0.20;;
40649;SDS011;26342;42.826;23.992;2022-12-10T11:17:20;0.32;;;0.30;;
40649;SDS011;26342;42.826;23.992;2022-12-10T11:19:59;0.17;;;0.17;;
40649;SDS011;26342;42.826;23.992;2022-12-10T11:22:32;1.00;;;0.65;;
40649;SDS011;26342;42.826;23.992;2022-12-10T11:24:59;0.55;;;0.47;;
40649;SDS011;26342;42.826;23.992;2022-12-10T11:30:13;0.73;;;0.20;;
40649;SDS011;26342;42.826;23.992;2022-12-10T11:35:21;0.15;;;0.15;;
40649;SDS011;26342;42.826;23.992;2022-12-10T11:41:02;0.40;;;0.40;;
40649;SDS011;26342;42.826;23.992;2022-12-10T11:51:40;1.38;;;0.77;;
40649;SDS011;26342;42.826;23.992;2022-12-10T11:56:55;3.20;;;1.05;;
40649;SDS011;26342;42.826;23.992;2022-12-10T12:10:51;0.60;;;0.60;;
40649;SDS011;26342;42.826;23.992;2022-12-10T12:13:47;6.47;;;1.33;;
40649;SDS011;26342;42.826;23.992;2022-12-10T12:18:54;2.60;;;0.85;;
40649;SDS011;26342;42.826;23.992;2022-12-10T12:21:26;8.57;;;1.05;;
40649;SDS011;26342;42.826;23.992;2022-12-10T12:26:38;0.95;;;0.80;;
40649;SDS011;26342;42.826;23.992;2022-12-10T12:29:15;0.70;;;0.60;;
40649;SDS011;26342;42.826;23.992;2022-12-10T12:31:44;1.65;;;1.27;;
40649;SDS011;26342;42.826;23.992;2022-12-10T12:36:54;4.13;;;1.55;;
40649;SDS011;26342;42.826;23.992;2022-12-10T12:41:58;10.25;;;4.82;;
40649;SDS011;26342;42.826;23.992;2022-12-10T12:50:10;0.73;;;0.63;;
40649;SDS011;26342;42.826;23.992;2022-12-10T12:53:12;1.15;;;1.05;;
40649;SDS011;26342;42.826;23.992;2022-12-10T12:58:39;2.35;;;1.67;;
40649;SDS011;26342;42.826;23.992;2022-12-10T13:03:43;0.45;;;0.35;;
40649;SDS011;26342;42.826;23.992;2022-12-10T13:06:20;1.60;;;0.77;;
40649;SDS011;26342;42.826;23.992;2022-12-10T13:14:13;7.65;;;3.25;;
40649;SDS011;26342;42.826;23.992;2022-12-10T13:35:15;0.32;;;0.25;;
40649;SDS011;26342;42.826;23.992;2022-12-10T13:42:34;12.02;;;1.25;;
40649;SDS011;26342;42.826;23.992;2022-12-10T13:59:14;1.30;;;0.68;;
40649;SDS011;26342;42.826;23.992;2022-12-10T14:04:26;1.85;;;0.90;;
40649;SDS011;26342;42.826;23.992;2022-12-10T14:07:14;2.45;;;1.10;;
40649;SDS011;26342;42.826;23.992;2022-12-10T14:09:44;1.33;;;0.95;;
40649;SDS011;26342;42.826;23.992;2022-12-10T14:12:15;0.35;;;0.35;;
40649;SDS011;26342;42.826;23.992;2022-12-10T14:15:03;1.95;;;0.85;;
40649;SDS011;26342;42.826;23.992;2022-12-10T14:17:32;4.78;;;1.70;;
40649;SDS011;26342;42.826;23.992;2022-12-10T14:20:03;0.38;;;0.38;;
40649;SDS011;26342;42.826;23.992;2022-12-10T14:22:33;2.35;;;1.15;;
40649;SDS011;26342;42.826;23.992;2022-12-10T14:25:11;2.20;;;1.80;;
40649;SDS011;26342;42.826;23.992;2022-12-10T14:27:40;1.77;;;1.33;;
40649;SDS011;26342;42.826;23.992;2022-12-10T14:30:14;0.73;;;0.60;;
40649;SDS011;26342;42.826;23.992;2022-12-10T14:32:44;32.03;;;1.00;;
40649;SDS011;26342;42.826;23.992;2022-12-10T14:35:13;4.03;;;2.78;;
40649;SDS011;26342;42.826;23.992;2022-12-10T14:37:42;1.08;;;0.85;;
40649;SDS011;26342;42.826;23.992;2022-12-10T14:40:17;1.45;;;1.30;;
40649;SDS011;26342;42.826;23.992;2022-12-10T14:42:46;0.98;;;0.95;;
40649;SDS011;26342;42.826;23.992;2022-12-10T14:45:13;0.77;;;0.77;;
40649;SDS011;26342;42.826;23.992;2022-12-10T14:47:40;1.55;;;0.70;;
40649;SDS011;26342;42.826;23.992;2022-12-10T14:50:10;1.77;;;1.25;;
40649;SDS011;26342;42.826;23.992;2022-12-10T14:52:41;6.32;;;1.83;;
40649;SDS011;26342;42.826;23.992;2022-12-10T14:55:13;1.00;;;0.90;;
40649;SDS011;26342;42.826;23.992;2022-12-10T14:57:59;2.92;;;1.85;;
40649;SDS011;26342;42.826;23.992;2022-12-10T15:00:29;1.08;;;1.00;;
40649;SDS011;26342;42.826;23.992;2022-12-10T15:02:56;2.08;;;1.40;;
40649;SDS011;26342;42.826;23.992;2022-12-10T15:05:29;2.53;;;1.63;;
40649;SDS011;26342;42.826;23.992;2022-12-10T15:07:57;0.63;;;0.63;;
40649;SDS011;26342;42.826;23.992;2022-12-10T15:10:31;2.45;;;2.25;;
40649;SDS011;26342;42.826;23.992;2022-12-10T15:13:03;1.30;;;0.88;;
40649;SDS011;26342;42.826;23.992;2022-12-10T15:15:35;1.02;;;0.80;;
40649;SDS011;26342;42.826;23.992;2022-12-10T15:18:13;1.75;;;1.65;;
40649;SDS011;26342;42.826;23.992;2022-12-10T15:20:48;2.53;;;0.88;;
40649;SDS011;26342;42.826;23.992;2022-12-10T15:23:32;3.20;;;1.17;;
40649;SDS011;26342;42.826;23.992;2022-12-10T15:26:02;2.75;;;0.77;;
40649;SDS011;26342;42.826;23.992;2022-12-10T15:28:36;4.72;;;0.75;;
40649;SDS011;26342;42.826;23.992;2022-12-10T15:36:43;0.93;;;0.85;;
40649;SDS011;26342;42.826;23.992;2022-12-10T15:44:37;2.28;;;1.40;;
40649;SDS011;26342;42.826;23.992;2022-12-10T15:49:34;2.05;;;1.08;;
40649;SDS011;26342;42.826;23.992;2022-12-10T15:51:59;0.90;;;0.70;;
40649;SDS011;26342;42.826;23.992;2022-12-10T15:54:31;0.55;;;0.55;;
40649;SDS011;26342;42.826;23.992;2022-12-10T15:57:09;3.55;;;1.05;;
40649;SDS011;26342;42.826;23.992;2022-12-10T15:59:46;0.95;;;0.70;;
40649;SDS011;26342;42.826;23.992;2022-12-10T16:02:24;3.85;;;1.05;;
40649;SDS011;26342;42.826;23.992;2022-12-10T16:04:51;2.65;;;1.40;;
40649;SDS011;26342;42.826;23.992;2022-12-10T16:07:17;3.75;;;0.40;;
40649;SDS011;26342;42.826;23.992;2022-12-10T16:09:43;0.70;;;0.63;;
40649;SDS011;26342;42.826;23.992;2022-12-10T16:12:09;1.77;;;0.75;;
40649;SDS011;26342;42.826;23.992;2022-12-10T16:14:36;0.73;;;0.70;;
40649;SDS011;26342;42.826;23.992;2022-12-10T16:17:02;4.28;;;0.57;;
40649;SDS011;26342;42.826;23.992;2022-12-10T16:19:28;4.75;;;0.52;;
40649;SDS011;26342;42.826;23.992;2022-12-10T16:21:53;3.25;;;0.95;;
40649;SDS011;26342;42.826;23.992;2022-12-10T16:24:18;1.15;;;0.55;;
40649;SDS011;26342;42.826;23.992;2022-12-10T16:26:44;0.77;;;0.38;;
40649;SDS011;26342;42.826;23.992;2022-12-10T16:29:09;1.00;;;0.55;;
40649;SDS011;26342;42.826;23.992;2022-12-10T16:31:35;3.55;;;1.05;;
40649;SDS011;26342;42.826;23.992;2022-12-10T16:34:00;2.75;;;0.75;;
40649;SDS011;26342;42.826;23.992;2022-12-10T16:36:26;1.48;;;0.88;;
40649;SDS011;26342;42.826;23.992;2022-12-10T16:38:51;1.42;;;0.40;;
40649;SDS011;26342;42.826;23.992;2022-12-10T16:41:19;3.60;;;1.60;;
40649;SDS011;26342;42.826;23.992;2022-12-10T16:43:49;0.90;;;0.90;;
40649;SDS011;26342;42.826;23.992;2022-12-10T16:46:14;1.10;;;0.93;;
40649;SDS011;26342;42.826;23.992;2022-12-10T16:48:40;1.88;;;1.77;;
40649;SDS011;26342;42.826;23.992;2022-12-10T16:51:12;0.93;;;0.70;;
40649;SDS011;26342;42.826;23.992;2022-12-10T16:53:50;0.47;;;0.28;;
40649;SDS011;26342;42.826;23.992;2022-12-10T16:56:16;0.63;;;0.55;;
40649;SDS011;26342;42.826;23.992;2022-12-10T16:58:42;7.63;;;1.27;;
40649;SDS011;26342;42.826;23.992;2022-12-10T17:01:17;0.88;;;0.85;;
40649;SDS011;26342;42.826;23.992;2022-12-10T17:03:54;0.98;;;0.52;;
40649;SDS011;26342;42.826;23.992;2022-12-10T17:06:20;2.17;;;0.65;;
40649;SDS011;26342;42.826;23.992;2022-12-10T17:08:46;1.20;;;1.02;;
40649;SDS011;26342;42.826;23.992;2022-12-10T17:11:22;0.52;;;0.52;;
40649;SDS011;26342;42.826;23.992;2022-12-10T17:14:30;0.77;;;0.77;;